createdAt,value
2023-05-01T00:01:26.412Z,100.00
2023-05-01T00:03:54.751Z,100.00
2023-05-01T00:06:22.746Z,100.00
2023-05-01T00:08:51.843Z,100.00
2023-05-01T00:11:19.717Z,100.00
2023-05-01T00:13:47.623Z,100.00
2023-05-01T00:16:17.018Z,100.00
2023-05-01T00:18:48.029Z,100.00
2023-05-01T00:21:15.982Z,100.00
2023-05-01T00:23:46.395Z,100.00
2023-05-01T00:26:15.507Z,100.00
2023-05-01T00:28:47.211Z,100.00
2023-05-01T00:31:15.463Z,100.00
2023-05-01T00:33:43.371Z,100.00
2023-05-01T00:36:11.408Z,100.00
2023-05-01T00:38:39.249Z,100.00
2023-05-01T00:41:07.033Z,100.00
2023-05-01T00:43:36.268Z,100.00
2023-05-01T00:46:04.309Z,100.00
2023-05-01T00:48:32.153Z,100.00
2023-05-01T00:51:02.868Z,100.00
2023-05-01T00:53:30.851Z,100.00
2023-05-01T00:55:59.489Z,100.00
2023-05-01T00:58:27.913Z,100.00
2023-05-01T01:00:57.529Z,100.00
2023-05-01T01:03:25.513Z,100.00
2023-05-01T01:05:58.348Z,100.00
2023-05-01T01:08:34.686Z,100.00
2023-05-01T01:11:11.575Z,100.00
2023-05-01T01:13:47.362Z,100.00
2023-05-01T01:16:22.908Z,100.00
2023-05-01T01:18:57.422Z,100.00
2023-05-01T01:21:32.785Z,100.00
2023-05-01T01:24:22.664Z,100.00
2023-05-01T01:27:14.648Z,100.00
2023-05-01T01:30:05.249Z,100.00
2023-05-01T01:32:57.714Z,100.00
2023-05-01T01:35:28.892Z,100.00
2023-05-01T01:38:04.615Z,100.00
2023-05-01T01:40:36.378Z,100.00
2023-05-01T01:43:08.734Z,100.00
2023-05-01T01:45:40.830Z,100.00
2023-05-01T01:48:12.095Z,100.00
2023-05-01T01:50:43.502Z,100.00
2023-05-01T01:53:14.308Z,100.00
2023-05-01T01:55:44.531Z,100.00
2023-05-01T01:58:14.218Z,100.00
2023-05-01T02:00:45.508Z,100.00
2023-05-01T02:03:15.943Z,100.00
2023-05-01T02:05:47.473Z,100.00
2023-05-01T02:08:16.713Z,100.00
2023-05-01T02:10:46.266Z,100.00
2023-05-01T02:13:17.519Z,100.00
2023-05-01T02:15:46.855Z,100.00
2023-05-01T02:18:16.197Z,100.00
2023-05-01T02:20:45.554Z,100.00
2023-05-01T02:23:14.905Z,100.00
2023-05-01T02:25:45.189Z,100.00
2023-05-01T02:28:14.804Z,100.00
2023-05-01T02:30:42.664Z,100.00
2023-05-01T02:33:10.956Z,100.00
2023-05-01T02:35:43.976Z,100.00
2023-05-01T02:38:13.791Z,100.00
2023-05-01T02:40:46.548Z,100.00
2023-05-01T02:43:19.626Z,100.00
2023-05-01T02:45:52.522Z,100.00
2023-05-01T02:48:26.043Z,100.00
2023-05-01T02:50:55.789Z,100.00
2023-05-01T02:53:25.022Z,100.00
2023-05-01T02:55:58.499Z,100.00
2023-05-01T02:58:28.647Z,100.00
2023-05-01T03:00:56.496Z,100.00
2023-05-01T03:03:25.181Z,100.00
2023-05-01T03:05:57.638Z,100.00
2023-05-01T03:08:26.936Z,100.00
2023-05-01T03:10:54.762Z,100.00
2023-05-01T03:13:23.173Z,100.00
2023-05-01T03:15:51.052Z,100.00
2023-05-01T03:18:18.956Z,100.00
2023-05-01T03:20:54.745Z,100.00
2023-05-01T03:23:23.282Z,100.00
2023-05-01T03:25:54.378Z,100.00
2023-05-01T03:28:23.625Z,100.00
2023-05-01T03:30:53.504Z,100.00
2023-05-01T03:33:21.702Z,100.00
2023-05-01T03:35:49.477Z,100.00
2023-05-01T03:38:17.316Z,100.00
2023-05-01T03:41:15.752Z,100.00
2023-05-01T03:44:02.047Z,100.00
2023-05-01T03:46:34.413Z,100.00
2023-05-01T03:49:02.915Z,100.00
2023-05-01T03:51:34.876Z,100.00
2023-05-01T03:54:02.782Z,100.00
2023-05-01T03:56:38.563Z,100.00
2023-05-01T03:59:07.361Z,100.00
2023-05-01T04:01:35.264Z,100.00
2023-05-01T04:04:03.539Z,100.00
2023-05-01T04:06:31.745Z,100.00
2023-05-01T04:09:00.130Z,100.00
2023-05-01T04:11:27.897Z,100.00
2023-05-01T04:13:59.249Z,100.00
2023-05-01T04:16:27.301Z,100.00
2023-05-01T04:18:56.778Z,100.00
2023-05-01T04:21:25.203Z,100.00
2023-05-01T04:23:53.853Z,100.00
2023-05-01T04:26:22.087Z,100.00
2023-05-01T04:28:50.831Z,100.00
2023-05-01T04:31:24.189Z,100.00
2023-05-01T04:33:52.727Z,100.00
2023-05-01T04:36:21.045Z,100.00
2023-05-01T04:38:49.721Z,100.00
2023-05-01T04:41:18.387Z,100.00
2023-05-01T04:43:47.851Z,100.00
2023-05-01T04:46:19.013Z,100.00
2023-05-01T04:48:48.217Z,100.00
2023-05-01T04:51:16.242Z,100.00
2023-05-01T04:53:44.239Z,100.00
2023-05-01T04:56:21.268Z,100.00
2023-05-01T04:58:51.591Z,100.00
2023-05-01T05:01:22.956Z,100.00
2023-05-01T05:03:52.819Z,100.00
2023-05-01T05:06:20.993Z,100.00
2023-05-01T05:08:51.827Z,100.00
2023-05-01T05:11:19.826Z,100.00
2023-05-01T05:13:47.598Z,100.00
2023-05-01T05:16:15.913Z,100.00
2023-05-01T05:18:43.771Z,100.00
2023-05-01T05:21:13.104Z,100.00
2023-05-01T05:23:47.301Z,100.00
2023-05-01T05:26:15.069Z,100.00
2023-05-01T05:28:42.976Z,100.00
2023-05-01T05:31:10.760Z,100.00
2023-05-01T05:33:38.834Z,100.00
2023-05-01T05:36:07.622Z,100.00
2023-05-01T05:38:42.472Z,100.00
2023-05-01T05:41:12.993Z,100.00
2023-05-01T05:43:40.968Z,100.00
2023-05-01T05:46:09.735Z,100.00
2023-05-01T05:48:38.672Z,100.00
2023-05-01T05:51:06.547Z,100.00
2023-05-01T05:53:35.317Z,100.00
2023-05-01T05:56:09.390Z,100.00
2023-05-01T05:58:37.734Z,100.00
2023-05-01T06:01:06.687Z,100.00
2023-05-01T06:03:36.236Z,100.00
2023-05-01T06:06:07.316Z,100.00
2023-05-01T06:08:37.574Z,100.00
2023-05-01T06:11:09.817Z,100.00
2023-05-01T06:13:39.336Z,100.00
2023-05-01T06:16:08.559Z,100.00
2023-05-01T06:18:36.604Z,100.00
2023-05-01T06:21:04.763Z,100.00
2023-05-01T06:23:33.917Z,100.00
2023-05-01T06:26:32.978Z,100.00
2023-05-01T06:29:00.876Z,100.00
2023-05-01T06:31:29.348Z,100.00
2023-05-01T06:34:01.198Z,100.00
2023-05-01T06:36:47.106Z,100.00
2023-05-01T06:39:14.934Z,100.00
2023-05-01T06:41:47.080Z,100.00
2023-05-01T06:44:15.744Z,100.00
2023-05-01T06:46:43.794Z,100.00
2023-05-01T06:49:11.801Z,100.00
2023-05-01T06:51:40.303Z,100.00
2023-05-01T06:54:08.186Z,100.00
2023-05-01T06:56:36.017Z,100.00
2023-05-01T06:59:06.104Z,100.00
2023-05-01T07:01:35.418Z,100.00
2023-05-01T07:04:03.604Z,100.00
2023-05-01T07:06:32.336Z,100.00
2023-05-01T07:09:00.295Z,100.00
2023-05-01T07:11:28.155Z,100.00
2023-05-01T07:13:56.167Z,100.00
2023-05-01T07:16:25.702Z,100.00
2023-05-01T07:18:53.424Z,100.00
2023-05-01T07:21:21.286Z,100.00
2023-05-01T07:23:49.178Z,100.00
2023-05-01T07:26:17.016Z,100.00
2023-05-01T07:28:44.766Z,100.00
2023-05-01T07:31:13.161Z,100.00
2023-05-01T07:33:42.870Z,100.00
2023-05-01T07:36:11.293Z,100.00
2023-05-01T07:38:39.083Z,100.00
2023-05-01T07:41:08.467Z,100.00
2023-05-01T07:43:36.416Z,100.00
2023-05-01T07:46:05.399Z,100.00
2023-05-01T07:48:33.633Z,100.00
2023-05-01T07:51:04.713Z,100.00
2023-05-01T07:53:33.107Z,100.00
2023-05-01T07:56:10.965Z,100.00
2023-05-01T07:58:40.989Z,100.00
2023-05-01T08:01:09.162Z,100.00
2023-05-01T08:03:37.107Z,100.00
2023-05-01T08:06:06.727Z,100.00
2023-05-01T08:08:37.583Z,100.00
2023-05-01T08:11:05.556Z,100.00
2023-05-01T08:13:33.433Z,100.00
2023-05-01T08:16:05.518Z,100.00
2023-05-01T08:18:33.462Z,100.00
2023-05-01T08:21:01.304Z,100.00
2023-05-01T08:23:30.648Z,100.00
2023-05-01T08:25:58.809Z,100.00
2023-05-01T08:28:26.671Z,100.00
2023-05-01T08:30:54.523Z,100.00
2023-05-01T08:33:22.465Z,100.00
2023-05-01T08:35:50.874Z,100.00
2023-05-01T08:38:18.664Z,100.00
2023-05-01T08:40:53.239Z,100.00
2023-05-01T08:43:21.225Z,100.00
2023-05-01T08:45:49.719Z,100.00
2023-05-01T08:48:18.598Z,100.00
2023-05-01T08:50:48.289Z,100.00
2023-05-01T08:53:18.543Z,96.85
2023-05-01T08:55:47.564Z,97.15
2023-05-01T08:58:19.253Z,96.38
2023-05-01T09:00:48.274Z,95.27
2023-05-01T09:03:17.950Z,94.78
2023-05-01T09:05:47.262Z,91.56
2023-05-01T09:08:16.016Z,89.99
2023-05-01T09:10:48.164Z,87.21
2023-05-01T09:13:17.738Z,90.08
2023-05-01T09:15:45.590Z,82.16
2023-05-01T09:18:14.560Z,85.79
2023-05-01T09:20:42.898Z,92.89
2023-05-01T09:23:10.909Z,90.30
2023-05-01T09:25:38.960Z,86.96
2023-05-01T09:28:07.115Z,87.01
2023-05-01T09:30:37.241Z,82.60
2023-05-01T09:33:09.305Z,82.71
2023-05-01T09:35:51.419Z,85.25
2023-05-01T09:38:20.113Z,86.11
2023-05-01T09:40:48.114Z,87.52
2023-05-01T09:43:25.642Z,85.36
2023-05-01T09:46:07.355Z,85.90
2023-05-01T09:48:36.736Z,82.53
2023-05-01T09:51:24.529Z,82.32
2023-05-01T09:53:53.297Z,79.19
2023-05-01T09:56:22.092Z,80.94
2023-05-01T09:58:51.981Z,79.28
2023-05-01T10:01:38.950Z,80.84
2023-05-01T10:04:07.044Z,82.32
2023-05-01T10:06:34.982Z,81.40
2023-05-01T10:09:03.626Z,80.84
2023-05-01T10:11:31.581Z,87.21
2023-05-01T10:14:17.518Z,82.52
2023-05-01T10:16:46.989Z,85.58
2023-05-01T10:19:18.008Z,87.11
2023-05-01T10:21:45.798Z,86.92
2023-05-01T10:24:15.173Z,84.43
2023-05-01T10:26:43.503Z,82.84
2023-05-01T10:29:13.138Z,84.18
2023-05-01T10:31:42.524Z,81.00
2023-05-01T10:34:13.678Z,79.94
2023-05-01T10:36:50.345Z,82.25
2023-05-01T10:39:34.472Z,79.09
2023-05-01T10:42:06.601Z,78.59
2023-05-01T10:44:35.818Z,73.81
2023-05-01T10:47:44.113Z,75.41
2023-05-01T10:50:15.851Z,77.15
2023-05-01T10:53:18.168Z,77.24
2023-05-01T10:55:47.368Z,78.72
2023-05-01T10:58:36.125Z,75.47
2023-05-01T11:01:34.292Z,79.76
2023-05-01T11:04:04.772Z,83.99
2023-05-01T11:06:33.348Z,75.72
2023-05-01T11:09:02.417Z,75.80
2023-05-01T11:11:53.914Z,76.07
2023-05-01T11:14:25.063Z,72.31
2023-05-01T11:16:55.152Z,76.05
2023-05-01T11:19:52.687Z,79.86
2023-05-01T11:22:21.085Z,83.39
2023-05-01T11:24:49.824Z,76.63
2023-05-01T11:27:18.062Z,76.66
2023-05-01T11:29:49.532Z,74.41
2023-05-01T11:32:28.117Z,83.19
2023-05-01T11:34:57.174Z,79.15
2023-05-01T11:37:40.936Z,75.88
2023-05-01T11:40:21.449Z,81.31
2023-05-01T11:42:49.898Z,81.05
2023-05-01T11:45:18.219Z,84.33
2023-05-01T11:47:47.495Z,83.78
2023-05-01T11:50:15.521Z,85.24
2023-05-01T11:52:45.145Z,84.50
2023-05-01T11:55:12.953Z,90.34
2023-05-01T11:57:48.412Z,83.20
2023-05-01T12:00:17.857Z,80.32
2023-05-01T12:03:05.310Z,84.52
2023-05-01T12:05:35.490Z,81.40
2023-05-01T12:08:11.340Z,78.20
2023-05-01T12:10:40.938Z,78.41
2023-05-01T12:13:10.091Z,76.81
2023-05-01T12:15:40.815Z,84.92
2023-05-01T12:18:10.471Z,83.38
2023-05-01T12:20:39.655Z,75.53
2023-05-01T12:23:09.721Z,76.10
2023-05-01T12:25:39.484Z,80.08
2023-05-01T12:28:12.116Z,79.08
2023-05-01T12:30:41.911Z,80.58
2023-05-01T12:33:13.111Z,76.82
2023-05-01T12:35:42.093Z,75.41
2023-05-01T12:38:14.532Z,73.09
2023-05-01T12:40:52.768Z,75.53
2023-05-01T12:43:21.931Z,71.61
2023-05-01T12:45:53.746Z,70.16
2023-05-01T12:48:23.848Z,79.14
2023-05-01T12:50:54.758Z,75.84
2023-05-01T12:53:24.378Z,77.89
2023-05-01T12:55:53.788Z,72.16
2023-05-01T12:58:21.651Z,70.31
2023-05-01T13:00:51.377Z,68.85
2023-05-01T13:03:26.281Z,70.64
2023-05-01T13:05:56.369Z,74.51
2023-05-01T13:08:28.626Z,73.43
2023-05-01T13:10:57.567Z,69.08
2023-05-01T13:13:30.436Z,68.59
2023-05-01T13:16:06.547Z,74.83
2023-05-01T13:18:43.805Z,72.27
2023-05-01T13:21:14.683Z,70.39
2023-05-01T13:23:43.611Z,72.63
2023-05-01T13:26:11.786Z,72.78
2023-05-01T13:28:46.080Z,70.21
2023-05-01T13:31:14.938Z,73.63
2023-05-01T13:33:44.473Z,71.01
2023-05-01T13:36:25.399Z,68.53
2023-05-01T13:38:57.569Z,64.88
2023-05-01T13:41:27.229Z,63.74
2023-05-01T13:43:56.543Z,64.62
2023-05-01T13:46:26.064Z,61.82
2023-05-01T13:48:56.281Z,63.03
2023-05-01T13:51:26.473Z,61.36
2023-05-01T13:53:54.539Z,72.00
2023-05-01T13:56:22.745Z,72.54
2023-05-01T13:58:51.098Z,80.10
2023-05-01T14:01:20.995Z,77.48
2023-05-01T14:03:50.120Z,74.97
2023-05-01T14:06:21.429Z,78.10
2023-05-01T14:08:50.017Z,75.58
2023-05-01T14:11:18.348Z,80.86
2023-05-01T14:13:48.430Z,78.56
2023-05-01T14:16:24.366Z,82.08
2023-05-01T14:18:54.514Z,74.58
2023-05-01T14:21:27.237Z,75.96
2023-05-01T14:23:56.610Z,68.41
2023-05-01T14:26:25.028Z,70.15
2023-05-01T14:28:52.931Z,66.00
2023-05-01T14:31:27.021Z,69.17
2023-05-01T14:33:57.867Z,62.77
2023-05-01T14:36:31.196Z,62.60
2023-05-01T14:38:59.634Z,63.00
2023-05-01T14:41:27.844Z,62.83
2023-05-01T14:43:55.882Z,64.54
2023-05-01T14:46:32.027Z,56.88
2023-05-01T14:49:01.492Z,61.57
2023-05-01T14:51:32.260Z,64.47
2023-05-01T14:54:00.654Z,65.36
2023-05-01T14:56:28.744Z,66.78
2023-05-01T14:58:56.528Z,69.37
2023-05-01T15:01:24.406Z,72.49
2023-05-01T15:03:53.371Z,68.88
2023-05-01T15:06:21.249Z,70.19
2023-05-01T15:08:50.431Z,70.59
2023-05-01T15:11:20.836Z,70.52
2023-05-01T15:13:50.378Z,73.59
2023-05-01T15:16:18.410Z,81.93
2023-05-01T15:18:46.313Z,81.51
2023-05-01T15:21:14.105Z,82.38
2023-05-01T15:23:45.005Z,81.35
2023-05-01T15:26:14.429Z,77.60
2023-05-01T15:28:42.210Z,77.80
2023-05-01T15:31:10.006Z,77.93
2023-05-01T15:33:37.913Z,81.22
2023-05-01T15:36:06.578Z,82.44
2023-05-01T15:38:34.474Z,76.52
2023-05-01T15:41:02.424Z,73.87
2023-05-01T15:43:31.726Z,75.80
2023-05-01T15:45:59.830Z,75.17
2023-05-01T15:48:27.883Z,75.78
2023-05-01T15:50:55.789Z,78.97
2023-05-01T15:53:24.210Z,81.30
2023-05-01T15:55:52.151Z,80.55
2023-05-01T15:58:20.151Z,78.23
2023-05-01T16:00:50.218Z,78.15
2023-05-01T16:03:18.176Z,77.38
2023-05-01T16:05:47.362Z,77.28
2023-05-01T16:08:15.969Z,74.55
2023-05-01T16:10:43.888Z,76.20
2023-05-01T16:13:12.074Z,76.97
2023-05-01T16:15:40.142Z,77.52
2023-05-01T16:18:09.585Z,73.90
2023-05-01T16:20:43.660Z,76.49
2023-05-01T16:23:12.318Z,78.27
2023-05-01T16:25:43.407Z,76.79
2023-05-01T16:28:12.599Z,76.74
2023-05-01T16:30:42.443Z,78.98
2023-05-01T16:33:18.765Z,100.00
2023-05-01T16:35:49.112Z,100.00
2023-05-01T16:38:17.055Z,100.00
2023-05-01T16:40:46.021Z,100.00
2023-05-01T16:43:14.016Z,100.00
2023-05-01T16:45:41.927Z,100.00
2023-05-01T16:48:10.404Z,100.00
2023-05-01T16:50:41.134Z,100.00
2023-05-01T16:53:09.043Z,100.00
2023-05-01T16:55:36.808Z,100.00
2023-05-01T16:58:04.744Z,100.00
2023-05-01T17:00:35.588Z,100.00
2023-05-01T17:03:03.478Z,100.00
2023-05-01T17:05:31.506Z,100.00
2023-05-01T17:08:01.201Z,100.00
2023-05-01T17:10:29.058Z,100.00
2023-05-01T17:12:56.962Z,100.00
2023-05-01T17:15:24.844Z,100.00
2023-05-01T17:17:52.759Z,100.00
2023-05-01T17:20:21.271Z,100.00
2023-05-01T17:22:49.260Z,100.00
2023-05-01T17:25:18.633Z,100.00
2023-05-01T17:27:46.630Z,100.00
2023-05-01T17:30:14.617Z,100.00
2023-05-01T17:32:43.097Z,100.00
2023-05-01T17:35:11.188Z,100.00
2023-05-01T17:37:40.650Z,100.00
2023-05-01T17:40:11.082Z,100.00
2023-05-01T17:42:40.669Z,100.00
2023-05-01T17:45:10.599Z,100.00
2023-05-01T17:47:42.766Z,100.00
2023-05-01T17:50:12.989Z,100.00
2023-05-01T17:52:41.618Z,100.00
2023-05-01T17:55:10.298Z,100.00
2023-05-01T17:57:41.798Z,100.00
2023-05-01T18:00:11.657Z,100.00
2023-05-01T18:02:44.804Z,100.00
2023-05-01T18:05:13.202Z,100.00
2023-05-01T18:07:41.495Z,100.00
2023-05-01T18:10:14.417Z,100.00
2023-05-01T18:12:45.713Z,100.00
2023-05-01T18:15:15.909Z,100.00
2023-05-01T18:17:47.490Z,100.00
2023-05-01T18:20:15.433Z,100.00
2023-05-01T18:22:43.370Z,100.00
2023-05-01T18:25:11.315Z,100.00
2023-05-01T18:27:41.590Z,100.00
2023-05-01T18:30:11.621Z,100.00
2023-05-01T18:32:46.887Z,100.00
2023-05-01T18:35:16.036Z,100.00
2023-05-01T18:37:44.066Z,100.00
2023-05-01T18:40:13.054Z,100.00
2023-05-01T18:42:41.613Z,100.00
2023-05-01T18:45:11.536Z,100.00
2023-05-01T18:47:39.614Z,100.00
2023-05-01T18:50:12.410Z,100.00
2023-05-01T18:52:41.925Z,100.00
2023-05-01T18:55:11.667Z,100.00
2023-05-01T18:57:43.810Z,100.00
2023-05-01T19:00:17.333Z,100.00
2023-05-01T19:02:51.258Z,100.00
2023-05-01T19:05:19.871Z,100.00
2023-05-01T19:07:47.958Z,100.00
2023-05-01T19:10:15.887Z,100.00
2023-05-01T19:12:43.877Z,100.00
2023-05-01T19:15:14.218Z,100.00
2023-05-01T19:17:42.181Z,100.00
2023-05-01T19:20:10.682Z,100.00
2023-05-01T19:22:38.626Z,100.00
2023-05-01T19:25:07.080Z,100.00
2023-05-01T19:27:36.301Z,100.00
2023-05-01T19:30:04.713Z,100.00
2023-05-01T19:32:37.085Z,100.00
2023-05-01T19:35:05.621Z,100.00
2023-05-01T19:37:33.558Z,100.00
2023-05-01T19:40:01.666Z,100.00
2023-05-01T19:42:29.575Z,100.00
2023-05-01T19:44:57.315Z,100.00
2023-05-01T19:47:25.261Z,100.00
2023-05-01T19:49:54.536Z,100.00
2023-05-01T19:52:22.293Z,100.00
2023-05-01T19:54:51.656Z,100.00
2023-05-01T19:57:19.552Z,100.00
2023-05-01T19:59:47.727Z,100.00
2023-05-01T20:02:15.826Z,100.00
2023-05-01T20:04:43.624Z,100.00
2023-05-01T20:07:12.768Z,100.00
2023-05-01T20:09:40.596Z,100.00
2023-05-01T20:12:08.479Z,100.00
2023-05-01T20:14:36.682Z,100.00
2023-05-01T20:17:04.620Z,100.00
2023-05-01T20:19:32.443Z,100.00
2023-05-01T20:22:00.270Z,100.00
2023-05-01T20:24:29.926Z,100.00
2023-05-01T20:26:59.196Z,100.00
2023-05-01T20:29:28.178Z,100.00
2023-05-01T20:31:56.180Z,100.00
2023-05-01T20:34:25.156Z,100.00
2023-05-01T20:36:53.053Z,100.00
2023-05-01T20:39:20.949Z,100.00
2023-05-01T20:41:50.057Z,100.00
2023-05-01T20:44:17.825Z,100.00
2023-05-01T20:46:46.818Z,100.00
2023-05-01T20:49:16.077Z,100.00
2023-05-01T20:51:44.096Z,100.00
2023-05-01T20:54:11.914Z,100.00
2023-05-01T20:56:39.783Z,100.00
2023-05-01T20:59:08.969Z,100.00
2023-05-01T21:01:36.856Z,100.00
2023-05-01T21:04:06.397Z,100.00
2023-05-01T21:06:34.734Z,100.00
2023-05-01T21:09:03.119Z,100.00
2023-05-01T21:11:30.940Z,100.00
2023-05-01T21:13:59.091Z,100.00
2023-05-01T21:16:28.857Z,100.00
2023-05-01T21:18:56.760Z,100.00
2023-05-01T21:21:26.322Z,100.00
2023-05-01T21:23:54.597Z,100.00
2023-05-01T21:26:22.467Z,100.00
2023-05-01T21:28:50.487Z,100.00
2023-05-01T21:31:18.542Z,100.00
2023-05-01T21:33:48.588Z,100.00
2023-05-01T21:36:18.328Z,100.00
2023-05-01T21:38:47.012Z,100.00
2023-05-01T21:41:15.397Z,100.00
2023-05-01T21:43:43.574Z,100.00
2023-05-01T21:46:15.414Z,100.00
2023-05-01T21:48:43.397Z,100.00
2023-05-01T21:51:12.825Z,100.00
2023-05-01T21:53:42.804Z,100.00
2023-05-01T21:56:11.054Z,100.00
2023-05-01T21:58:39.713Z,100.00
2023-05-01T22:01:09.285Z,100.00
2023-05-01T22:03:40.775Z,100.00
2023-05-01T22:06:08.817Z,100.00
2023-05-01T22:08:37.973Z,100.00
2023-05-01T22:11:07.743Z,100.00
2023-05-01T22:13:36.386Z,100.00
2023-05-01T22:16:04.247Z,100.00
2023-05-01T22:18:32.110Z,100.00
2023-05-01T22:21:02.385Z,100.00
2023-05-01T22:23:30.124Z,100.00
2023-05-01T22:26:00.549Z,100.00
2023-05-01T22:28:28.933Z,100.00
2023-05-01T22:30:56.789Z,100.00
2023-05-01T22:33:24.585Z,100.00
2023-05-01T22:35:52.474Z,100.00
2023-05-01T22:38:20.321Z,100.00
2023-05-01T22:40:48.116Z,100.00
2023-05-01T22:43:17.384Z,100.00
2023-05-01T22:45:45.280Z,100.00
2023-05-01T22:48:13.329Z,100.00
2023-05-01T22:50:42.744Z,100.00
2023-05-01T22:53:10.654Z,100.00
2023-05-01T22:55:38.586Z,100.00
2023-05-01T22:58:06.528Z,100.00
2023-05-01T23:00:36.514Z,100.00
2023-05-01T23:03:04.882Z,100.00
2023-05-01T23:05:32.728Z,100.00
2023-05-01T23:08:00.436Z,100.00
2023-05-01T23:10:28.831Z,100.00
2023-05-01T23:12:56.782Z,100.00
2023-05-01T23:15:26.219Z,100.00
2023-05-01T23:17:57.133Z,100.00
2023-05-01T23:20:26.201Z,100.00
2023-05-01T23:22:54.579Z,100.00
2023-05-01T23:25:25.320Z,100.00
2023-05-01T23:27:55.545Z,100.00
2023-05-01T23:30:24.019Z,100.00
2023-05-01T23:32:52.664Z,100.00
2023-05-01T23:35:24.316Z,100.00
2023-05-01T23:37:52.894Z,100.00
2023-05-01T23:40:20.853Z,100.00
2023-05-01T23:42:49.332Z,100.00
2023-05-01T23:45:17.125Z,100.00
2023-05-01T23:47:44.985Z,100.00
2023-05-01T23:50:12.907Z,100.00
2023-05-01T23:52:42.313Z,100.00
2023-05-01T23:55:10.734Z,100.00
2023-05-01T23:57:38.490Z,100.00
